createdAt,value
2019-05-07T00:00:53.159Z,56.00
2019-05-07T00:03:23.549Z,56.20
2019-05-07T00:05:54.082Z,56.40
2019-05-07T00:08:24.505Z,56.40
2019-05-07T00:10:55.948Z,56.60
2019-05-07T00:13:26.349Z,56.70
2019-05-07T00:15:56.673Z,56.70
2019-05-07T00:18:27.055Z,56.90
2019-05-07T00:20:57.391Z,56.90
2019-05-07T00:23:27.841Z,57.10
2019-05-07T00:25:59.223Z,57.30
2019-05-07T00:28:29.659Z,57.50
2019-05-07T00:31:00.134Z,57.80
2019-05-07T00:33:32.316Z,58.00
2019-05-07T00:36:12.436Z,58.40
2019-05-07T00:38:45.611Z,58.60
2019-05-07T00:41:29.313Z,58.70
2019-05-07T00:43:59.933Z,58.80
2019-05-07T00:46:32.261Z,59.10
2019-05-07T00:49:02.609Z,59.40
2019-05-07T00:51:35.063Z,59.50
2019-05-07T00:54:06.745Z,59.80
2019-05-07T00:56:37.047Z,60.00
2019-05-07T00:59:07.422Z,60.20
2019-05-07T01:01:38.015Z,60.70
2019-05-07T01:04:08.361Z,60.80
2019-05-07T01:06:38.705Z,61.00
2019-05-07T01:09:09.074Z,61.40
2019-05-07T01:11:42.698Z,61.70
2019-05-07T01:14:12.584Z,62.00
2019-05-07T01:16:42.899Z,62.30
2019-05-07T01:19:13.239Z,62.60
2019-05-07T01:21:44.037Z,62.90
2019-05-07T01:24:14.421Z,63.20
2019-05-07T01:26:44.843Z,63.30
2019-05-07T01:29:15.482Z,63.70
2019-05-07T01:32:12.717Z,63.90
2019-05-07T01:34:54.497Z,64.40
2019-05-07T01:37:24.796Z,64.80
2019-05-07T01:39:55.485Z,64.80
2019-05-07T01:42:27.075Z,65.50
2019-05-07T01:44:57.831Z,65.70
2019-05-07T01:47:28.128Z,65.90
2019-05-07T01:49:58.453Z,66.40
2019-05-07T01:52:47.847Z,66.50
2019-05-07T01:55:18.205Z,66.90
2019-05-07T01:57:48.593Z,67.10
2019-05-07T02:00:19.131Z,67.50
2019-05-07T02:02:57.661Z,67.80
2019-05-07T02:05:34.066Z,69.10
2019-05-07T02:08:07.133Z,69.40
2019-05-07T02:10:44.814Z,69.00
2019-05-07T02:13:16.011Z,69.50
2019-05-07T02:15:57.451Z,69.90
2019-05-07T02:18:18.275Z,70.30
2019-05-07T02:20:48.584Z,70.60
2019-05-07T02:23:18.979Z,71.10
2019-05-07T02:25:49.390Z,71.70
2019-05-07T02:28:22.263Z,72.00
2019-05-07T02:30:53.533Z,72.20
2019-05-07T02:33:23.989Z,72.50
2019-05-07T02:35:54.342Z,73.00
2019-05-07T02:38:43.944Z,73.30
2019-05-07T02:41:16.366Z,73.60
2019-05-07T02:43:48.070Z,73.80
2019-05-07T02:46:32.021Z,74.20
2019-05-07T02:49:23.481Z,74.50
2019-05-07T02:52:04.077Z,75.00
2019-05-07T02:54:53.866Z,75.20
2019-05-07T02:57:24.494Z,75.50
2019-05-07T02:59:54.852Z,75.80
2019-05-07T03:02:25.195Z,76.10
2019-05-07T03:04:57.245Z,76.70
2019-05-07T03:07:27.840Z,76.50
2019-05-07T03:09:59.361Z,76.70
2019-05-07T03:12:29.764Z,76.80
2019-05-07T03:15:04.479Z,77.30
2019-05-07T03:17:35.027Z,77.50
2019-05-07T03:20:08.738Z,77.70
2019-05-07T03:22:39.025Z,78.00
2019-05-07T03:25:17.595Z,78.20
2019-05-07T03:27:48.864Z,78.30
2019-05-07T03:30:36.010Z,78.60
2019-05-07T03:33:25.603Z,78.90
2019-05-07T03:35:56.130Z,79.20
2019-05-07T03:38:26.045Z,79.30
2019-05-07T03:40:56.395Z,79.40
2019-05-07T03:43:27.189Z,79.60
2019-05-07T03:46:16.430Z,79.80
2019-05-07T03:48:48.111Z,79.90
2019-05-07T03:51:18.394Z,80.00
2019-05-07T03:53:48.765Z,80.20
2019-05-07T03:56:19.082Z,80.20
2019-05-07T03:58:49.429Z,80.40
2019-05-07T04:01:19.763Z,80.20
2019-05-07T04:03:53.103Z,80.30
2019-05-07T04:06:23.413Z,80.30
2019-05-07T04:08:54.009Z,80.10
2019-05-07T04:11:24.363Z,80.00
2019-05-07T04:13:55.034Z,80.10
2019-05-07T04:16:26.021Z,80.10
2019-05-07T04:18:56.295Z,80.20
2019-05-07T04:21:27.233Z,80.30
2019-05-07T04:24:14.134Z,80.50
2019-05-07T04:26:48.189Z,80.70
2019-05-07T04:29:18.557Z,80.60
2019-05-07T04:31:48.870Z,80.50
2019-05-07T04:34:24.601Z,80.40
2019-05-07T04:36:55.000Z,80.50
2019-05-07T04:39:25.301Z,80.50
2019-05-07T04:41:55.654Z,80.30
2019-05-07T04:44:26.009Z,80.00
2019-05-07T04:46:56.386Z,80.50
2019-05-07T04:49:26.738Z,80.00
2019-05-07T04:52:14.969Z,79.70
2019-05-07T04:54:43.903Z,79.20
2019-05-07T04:57:26.816Z,78.70
2019-05-07T04:59:58.219Z,78.60
2019-05-07T05:02:43.292Z,78.30
2019-05-07T05:05:12.870Z,77.80
2019-05-07T05:07:44.446Z,78.00
2019-05-07T05:10:14.844Z,77.90
2019-05-07T05:12:45.179Z,77.60
2019-05-07T05:15:15.787Z,77.30
2019-05-07T05:17:50.735Z,77.00
2019-05-07T05:20:22.803Z,76.80
2019-05-07T05:23:08.116Z,76.50
2019-05-07T05:25:40.089Z,76.10
2019-05-07T05:28:12.403Z,75.50
2019-05-07T05:30:47.301Z,75.40
2019-05-07T05:33:18.506Z,75.10
2019-05-07T05:35:48.954Z,74.60
2019-05-07T05:38:19.286Z,74.20
2019-05-07T05:40:51.886Z,74.20
2019-05-07T05:43:55.773Z,73.80
2019-05-07T05:46:27.663Z,73.60
2019-05-07T05:48:58.001Z,73.40
2019-05-07T05:51:52.561Z,73.00
2019-05-07T05:54:42.618Z,72.40
2019-05-07T05:57:32.352Z,72.10
2019-05-07T06:00:22.050Z,71.30
2019-05-07T06:03:17.117Z,70.90
2019-05-07T06:06:09.592Z,70.10
2019-05-07T06:08:58.843Z,69.90
2019-05-07T06:11:43.002Z,69.70
2019-05-07T06:14:22.196Z,69.40
2019-05-07T06:17:09.418Z,68.40
2019-05-07T06:19:48.151Z,67.40
2019-05-07T06:22:42.457Z,68.40
2019-05-07T06:25:18.385Z,67.60
2019-05-07T06:27:48.770Z,67.50
2019-05-07T06:30:19.588Z,67.10
2019-05-07T06:32:52.132Z,67.20
2019-05-07T06:35:43.037Z,66.00
2019-05-07T06:38:14.461Z,66.00
2019-05-07T06:40:54.643Z,66.00
2019-05-07T06:43:33.373Z,65.70
2019-05-07T06:46:04.852Z,65.50
2019-05-07T06:48:42.282Z,64.70
2019-05-07T06:51:08.052Z,64.70
2019-05-07T06:53:38.392Z,64.50
2019-05-07T06:56:08.748Z,64.00
2019-05-07T06:58:47.288Z,63.40
2019-05-07T07:01:28.674Z,62.50
2019-05-07T07:04:09.136Z,63.20
2019-05-07T07:07:26.322Z,62.60
2019-05-07T07:09:59.356Z,62.90
2019-05-07T07:12:33.121Z,62.70
2019-05-07T07:15:06.070Z,62.00
2019-05-07T07:17:37.672Z,62.10
2019-05-07T07:20:08.290Z,61.40
2019-05-07T07:22:40.023Z,61.40
2019-05-07T07:25:11.931Z,61.10
2019-05-07T07:27:42.957Z,61.00
2019-05-07T07:30:44.845Z,60.50
2019-05-07T07:33:16.011Z,60.10
2019-05-07T07:35:46.611Z,58.90
2019-05-07T07:38:36.100Z,58.80
2019-05-07T07:41:24.930Z,57.40
2019-05-07T07:43:55.258Z,56.20
2019-05-07T07:46:25.670Z,54.40
2019-05-07T07:49:06.877Z,53.60
2019-05-07T07:51:38.889Z,52.60
2019-05-07T07:54:02.466Z,50.80
2019-05-07T07:56:50.227Z,48.00
2019-05-07T07:59:29.544Z,47.20
2019-05-07T08:02:17.736Z,46.70
2019-05-07T08:04:48.028Z,46.80
2019-05-07T08:07:18.420Z,45.60
2019-05-07T08:09:48.717Z,42.60
2019-05-07T08:12:18.989Z,41.30
2019-05-07T08:14:51.759Z,39.50
2019-05-07T08:17:22.406Z,38.00
2019-05-07T08:19:53.036Z,37.40
2019-05-07T08:22:23.360Z,35.60
2019-05-07T08:24:54.261Z,35.00
2019-05-07T08:27:24.603Z,36.20
2019-05-07T08:29:56.116Z,36.50
2019-05-07T08:32:35.488Z,36.90
2019-05-07T08:38:07.343Z,35.30
2019-05-07T08:40:37.684Z,35.30
2019-05-07T08:43:08.660Z,36.00
2019-05-07T08:45:56.772Z,37.20
2019-05-07T08:48:36.660Z,38.20
2019-05-07T08:51:07.010Z,37.10
2019-05-07T08:53:37.431Z,33.70
2019-05-07T08:56:07.834Z,32.30
2019-05-07T09:05:11.937Z,29.30
2019-05-07T09:10:48.429Z,29.20
2019-05-07T09:16:31.949Z,28.20
2019-05-07T09:19:02.296Z,28.30
2019-05-07T09:21:34.372Z,26.90
2019-05-07T09:33:57.537Z,28.50
2019-05-07T09:36:33.338Z,27.40
2019-05-07T09:39:05.539Z,26.60
2019-05-07T09:41:36.239Z,27.00
2019-05-07T09:44:06.591Z,27.80
2019-05-07T09:46:37.815Z,28.80
2019-05-07T09:49:08.151Z,29.40
2019-05-07T09:51:38.459Z,30.50
2019-05-07T09:54:09.142Z,31.20
2019-05-07T09:56:42.240Z,30.70
2019-05-07T09:59:12.710Z,30.40
2019-05-07T10:01:44.418Z,30.80
2019-05-07T10:04:14.945Z,31.00
2019-05-07T10:06:45.261Z,29.70
2019-05-07T10:09:15.617Z,29.70
2019-05-07T10:11:52.579Z,28.90
2019-05-07T10:14:22.947Z,28.50
2019-05-07T10:20:04.429Z,28.90
2019-05-07T10:22:33.181Z,29.80
2019-05-07T10:25:03.611Z,30.60
2019-05-07T10:27:34.105Z,31.70
2019-05-07T10:30:04.629Z,32.60
2019-05-07T10:32:35.505Z,34.30
2019-05-07T10:35:06.560Z,35.60
2019-05-07T10:37:36.865Z,36.70
2019-05-07T10:40:08.387Z,37.40
2019-05-07T10:42:39.051Z,37.50
2019-05-07T10:45:32.272Z,37.90
2019-05-07T10:48:18.181Z,38.80
2019-05-07T10:50:51.601Z,39.60
2019-05-07T10:53:22.976Z,40.60
2019-05-07T10:55:54.470Z,41.40
2019-05-07T10:58:24.852Z,42.10
2019-05-07T11:00:55.867Z,42.60
2019-05-07T11:03:26.329Z,42.70
2019-05-07T11:05:59.377Z,41.90
2019-05-07T11:08:29.748Z,40.80
2019-05-07T11:11:00.045Z,40.40
2019-05-07T11:13:30.393Z,40.10
2019-05-07T11:16:06.412Z,40.00
2019-05-07T11:18:48.466Z,40.10
2019-05-07T11:21:30.227Z,40.60
2019-05-07T11:24:03.106Z,41.10
2019-05-07T11:26:33.317Z,39.90
2019-05-07T11:29:03.740Z,39.20
2019-05-07T11:31:34.045Z,39.30
2019-05-07T11:34:05.295Z,39.50
2019-05-07T11:36:35.645Z,39.80
2019-05-07T11:39:07.948Z,40.30
2019-05-07T11:41:57.339Z,40.60
2019-05-07T11:44:29.347Z,41.10
2019-05-07T11:47:22.385Z,41.50
2019-05-07T11:50:11.961Z,41.80
2019-05-07T11:52:46.993Z,42.20
2019-05-07T11:55:17.322Z,42.30
2019-05-07T11:57:48.014Z,42.90
2019-05-07T12:00:27.956Z,42.20
2019-05-07T12:02:58.283Z,42.20
2019-05-07T12:05:29.557Z,42.40
2019-05-07T12:08:02.196Z,42.20
2019-05-07T12:10:32.833Z,42.00
2019-05-07T12:13:03.318Z,41.80
2019-05-07T12:15:33.725Z,41.60
2019-05-07T12:18:04.233Z,41.60
2019-05-07T12:20:34.585Z,41.90
2019-05-07T12:23:05.304Z,42.40
2019-05-07T12:25:35.784Z,42.50
2019-05-07T12:28:06.345Z,42.30
2019-05-07T12:31:07.895Z,42.20
2019-05-07T12:34:06.170Z,41.90
2019-05-07T12:36:38.186Z,42.10
2019-05-07T12:39:09.751Z,41.80
2019-05-07T12:41:42.034Z,41.50
2019-05-07T12:44:13.023Z,41.60
2019-05-07T12:46:43.513Z,41.40
2019-05-07T12:49:13.850Z,41.60
2019-05-07T12:51:53.081Z,41.40
2019-05-07T12:54:34.682Z,41.40
2019-05-07T12:57:04.219Z,41.40
2019-05-07T12:59:34.525Z,41.10
2019-05-07T13:02:26.661Z,41.10
2019-05-07T13:04:46.305Z,41.30
2019-05-07T13:07:38.176Z,41.40
2019-05-07T13:10:08.838Z,41.50
2019-05-07T13:12:39.251Z,41.30
2019-05-07T13:15:23.508Z,41.30
2019-05-07T13:17:42.263Z,41.60
2019-05-07T13:20:12.751Z,41.50
2019-05-07T13:22:43.149Z,41.80
2019-05-07T13:25:14.477Z,42.20
2019-05-07T13:27:44.805Z,42.10
2019-05-07T13:30:15.405Z,41.80
2019-05-07T13:32:48.277Z,41.80
2019-05-07T13:35:18.823Z,42.10
2019-05-07T13:38:11.800Z,42.40
2019-05-07T13:40:59.183Z,42.20
2019-05-07T13:43:34.239Z,42.50
2019-05-07T13:46:12.056Z,42.30
2019-05-07T13:48:45.868Z,41.90
2019-05-07T13:51:37.341Z,41.70
2019-05-07T13:54:33.447Z,41.90
2019-05-07T13:57:12.010Z,41.90
2019-05-07T13:59:44.141Z,42.40
2019-05-07T14:02:25.395Z,42.50
2019-05-07T14:05:18.921Z,42.70
2019-05-07T14:07:54.477Z,43.10
2019-05-07T14:10:57.785Z,43.10
2019-05-07T14:13:33.349Z,43.60
2019-05-07T14:16:12.150Z,44.00
2019-05-07T14:19:13.001Z,43.50
2019-05-07T14:21:43.226Z,43.60
2019-05-07T14:24:14.904Z,43.40
2019-05-07T14:26:45.261Z,43.30
2019-05-07T14:29:17.561Z,42.70
2019-05-07T14:31:52.173Z,42.60
2019-05-07T14:34:34.723Z,42.50
2019-05-07T14:37:08.979Z,42.70
2019-05-07T14:39:42.550Z,42.40
2019-05-07T14:42:27.066Z,42.10
2019-05-07T14:44:58.339Z,41.40
2019-05-07T14:47:28.685Z,40.90
2019-05-07T14:49:58.986Z,40.80
2019-05-07T14:52:33.176Z,40.30
2019-05-07T14:55:05.055Z,39.90
2019-05-07T14:57:33.801Z,39.40
2019-05-07T15:00:04.863Z,39.40
2019-05-07T15:02:35.626Z,40.70
2019-05-07T15:05:06.492Z,40.40
2019-05-07T15:07:36.822Z,40.70
2019-05-07T15:10:07.377Z,41.20
2019-05-07T15:12:37.809Z,40.80
2019-05-07T15:15:09.126Z,40.80
2019-05-07T15:17:48.369Z,40.70
2019-05-07T15:20:19.140Z,40.80
2019-05-07T15:23:15.000Z,41.80
2019-05-07T15:25:45.400Z,41.00
2019-05-07T15:28:15.732Z,41.80
2019-05-07T15:30:52.896Z,42.10
2019-05-07T15:33:23.243Z,42.50
2019-05-07T15:35:53.788Z,42.80
2019-05-07T15:38:24.150Z,42.80
2019-05-07T15:40:54.782Z,42.80
2019-05-07T15:43:25.195Z,42.60
2019-05-07T15:45:58.543Z,42.40
2019-05-07T15:48:29.306Z,42.40
2019-05-07T15:50:59.577Z,42.70
2019-05-07T15:53:49.182Z,43.00
2019-05-07T15:56:21.856Z,43.10
2019-05-07T15:58:52.465Z,43.30
2019-05-07T16:01:22.822Z,42.90
2019-05-07T16:03:54.792Z,42.90
2019-05-07T16:06:25.560Z,42.40
2019-05-07T16:09:02.436Z,42.70
2019-05-07T16:11:34.325Z,42.70
2019-05-07T16:14:19.511Z,42.20
2019-05-07T16:16:51.847Z,42.40
2019-05-07T16:19:26.744Z,42.40
2019-05-07T16:21:59.361Z,42.30
2019-05-07T16:24:31.797Z,41.90
2019-05-07T16:27:02.601Z,42.00
2019-05-07T16:29:35.649Z,42.00
2019-05-07T16:32:05.605Z,42.10
2019-05-07T16:34:35.976Z,42.20
2019-05-07T16:37:07.545Z,41.90
2019-05-07T16:39:38.285Z,42.10
2019-05-07T16:42:10.458Z,42.00
2019-05-07T16:44:41.780Z,42.10
2019-05-07T16:47:12.307Z,41.80
2019-05-07T16:49:42.694Z,41.60
2019-05-07T16:52:13.565Z,41.80
2019-05-07T16:54:45.264Z,41.60
2019-05-07T16:57:33.953Z,41.20
2019-05-07T17:00:05.406Z,41.40
2019-05-07T17:02:41.708Z,41.40
2019-05-07T17:05:14.999Z,41.60
2019-05-07T17:07:53.326Z,41.50
2019-05-07T17:10:23.802Z,41.50
2019-05-07T17:12:55.415Z,41.30
2019-05-07T17:15:25.808Z,41.40
2019-05-07T17:18:02.824Z,41.00
2019-05-07T17:20:33.320Z,41.20
2019-05-07T17:23:03.738Z,41.10
2019-05-07T17:25:37.154Z,41.00
2019-05-07T17:28:08.161Z,40.80
2019-05-07T17:30:38.825Z,40.80
2019-05-07T17:33:09.901Z,40.60
2019-05-07T17:35:42.186Z,40.80
2019-05-07T17:38:12.969Z,41.80
2019-05-07T17:40:43.563Z,41.40
2019-05-07T17:43:16.652Z,41.80
2019-05-07T17:45:47.419Z,41.90
2019-05-07T17:48:17.811Z,42.10
2019-05-07T17:51:00.564Z,42.40
2019-05-07T17:53:32.012Z,42.40
2019-05-07T17:56:02.993Z,42.40
2019-05-07T17:58:33.364Z,42.20
2019-05-07T18:01:04.504Z,42.10
2019-05-07T18:03:38.382Z,42.20
2019-05-07T18:06:12.363Z,41.80
2019-05-07T18:08:42.315Z,42.00
2019-05-07T18:11:21.018Z,42.00
2019-05-07T18:13:46.276Z,42.00
2019-05-07T18:16:38.613Z,42.00
2019-05-07T18:19:08.974Z,42.10
2019-05-07T18:21:39.330Z,42.00
2019-05-07T18:24:13.818Z,42.30
2019-05-07T18:26:42.874Z,42.10
2019-05-07T18:29:13.284Z,42.30
2019-05-07T18:31:56.496Z,42.40
2019-05-07T18:34:27.306Z,42.50
2019-05-07T18:36:57.689Z,42.40
2019-05-07T18:39:28.030Z,42.30
2019-05-07T18:41:58.452Z,42.50
2019-05-07T18:44:29.726Z,42.70
2019-05-07T18:47:02.159Z,42.90
2019-05-07T18:49:32.123Z,43.10
2019-05-07T18:52:02.915Z,43.20
2019-05-07T18:54:34.568Z,42.80
2019-05-07T18:57:04.894Z,43.40
2019-05-07T18:59:36.713Z,43.90
2019-05-07T19:02:07.161Z,45.10
2019-05-07T19:04:37.507Z,46.50
2019-05-07T19:07:07.807Z,46.00
2019-05-07T19:09:38.212Z,47.50
2019-05-07T19:12:10.152Z,47.90
2019-05-07T19:14:42.294Z,48.40
2019-05-07T19:17:12.700Z,48.70
2019-05-07T19:19:43.071Z,49.40
2019-05-07T19:22:13.433Z,49.60
2019-05-07T19:24:48.031Z,49.80
2019-05-07T19:27:17.258Z,50.00
2019-05-07T19:29:47.600Z,50.00
2019-05-07T19:32:17.958Z,50.60
2019-05-07T19:34:48.431Z,51.00
2019-05-07T19:37:18.919Z,51.20
2019-05-07T19:39:49.307Z,51.20
2019-05-07T19:42:20.782Z,51.60
2019-05-07T19:44:52.946Z,52.10
2019-05-07T19:47:23.471Z,52.10
2019-05-07T19:50:01.994Z,52.40
2019-05-07T19:52:33.158Z,52.80
2019-05-07T19:55:04.840Z,52.80
2019-05-07T19:57:42.539Z,53.10
2019-05-07T20:00:14.291Z,53.20
2019-05-07T20:02:47.292Z,53.60
2019-05-07T20:05:17.662Z,53.70
2019-05-07T20:07:48.014Z,53.40
2019-05-07T20:10:25.327Z,53.00
2019-05-07T20:12:56.723Z,53.50
2019-05-07T20:15:27.250Z,53.90
2019-05-07T20:17:57.630Z,54.00
2019-05-07T20:20:28.099Z,54.40
2019-05-07T20:22:58.514Z,54.70
2019-05-07T20:25:28.806Z,55.10
2019-05-07T20:27:59.634Z,55.50
2019-05-07T20:30:33.124Z,55.50
2019-05-07T20:33:03.536Z,56.00
2019-05-07T20:35:37.079Z,56.00
2019-05-07T20:38:05.955Z,55.70
2019-05-07T20:40:36.324Z,56.30
2019-05-07T20:43:06.666Z,56.70
2019-05-07T20:45:38.459Z,56.60
2019-05-07T20:48:09.399Z,56.40
2019-05-07T20:50:39.858Z,56.50
2019-05-07T20:53:10.167Z,57.40
2019-05-07T20:55:49.131Z,57.00
2019-05-07T20:58:19.483Z,57.10
2019-05-07T21:00:49.932Z,57.80
2019-05-07T21:03:20.338Z,57.70
2019-05-07T21:05:53.222Z,57.80
2019-05-07T21:08:23.751Z,58.00
2019-05-07T21:10:54.164Z,58.30
2019-05-07T21:13:31.412Z,58.50
2019-05-07T21:15:57.954Z,58.90
2019-05-07T21:18:28.327Z,59.30
2019-05-07T21:20:58.707Z,59.40
2019-05-07T21:23:29.071Z,59.70
2019-05-07T21:25:59.492Z,59.90
2019-05-07T21:28:32.169Z,60.30
2019-05-07T21:31:02.765Z,61.40
2019-05-07T21:33:33.350Z,61.40
2019-05-07T21:36:03.731Z,62.00
2019-05-07T21:38:34.050Z,62.50
2019-05-07T21:41:04.496Z,62.80
2019-05-07T21:43:35.181Z,63.70
2019-05-07T21:46:06.199Z,64.00
2019-05-07T21:48:36.533Z,63.90
2019-05-07T21:51:07.994Z,64.10
2019-05-07T21:53:53.777Z,64.30
2019-05-07T21:56:31.272Z,64.70
2019-05-07T21:59:14.189Z,65.00
2019-05-07T22:01:52.495Z,65.30
2019-05-07T22:04:22.423Z,65.60
2019-05-07T22:06:54.076Z,66.10
2019-05-07T22:09:24.386Z,66.00
2019-05-07T22:11:55.133Z,66.30
2019-05-07T22:14:26.274Z,66.30
2019-05-07T22:16:57.275Z,66.60
2019-05-07T22:19:28.309Z,66.90
2019-05-07T22:21:59.130Z,67.40
2019-05-07T22:24:32.830Z,67.40
2019-05-07T22:27:04.218Z,67.50
2019-05-07T22:29:35.690Z,67.90
2019-05-07T22:32:17.369Z,68.60
2019-05-07T22:34:52.898Z,69.10
2019-05-07T22:37:24.921Z,68.90
2019-05-07T22:40:13.537Z,68.80
2019-05-07T22:42:45.498Z,68.80
2019-05-07T22:45:15.870Z,68.80
2019-05-07T22:47:47.283Z,69.10
2019-05-07T22:50:17.629Z,69.20
2019-05-07T22:52:47.951Z,69.40
2019-05-07T22:55:18.339Z,69.70
2019-05-07T22:58:00.159Z,70.00
2019-05-07T23:00:37.218Z,70.10
2019-05-07T23:03:07.534Z,70.50
2019-05-07T23:05:37.857Z,71.00
2019-05-07T23:08:08.221Z,71.00
2019-05-07T23:10:38.642Z,71.00
2019-05-07T23:13:10.161Z,71.10
2019-05-07T23:15:42.801Z,71.60
2019-05-07T23:18:14.198Z,72.20
2019-05-07T23:20:44.906Z,72.90
2019-05-07T23:23:15.706Z,73.30
2019-05-07T23:25:46.125Z,74.10
2019-05-07T23:28:16.471Z,73.40
2019-05-07T23:30:46.753Z,73.10
2019-05-07T23:33:17.075Z,73.50
2019-05-07T23:35:48.389Z,73.60
2019-05-07T23:38:19.179Z,73.50
2019-05-07T23:41:12.702Z,73.50
2019-05-07T23:44:03.283Z,73.90
2019-05-07T23:46:33.633Z,74.40
2019-05-07T23:49:03.933Z,74.70
2019-05-07T23:51:34.345Z,75.10
2019-05-07T23:54:05.255Z,75.60
2019-05-07T23:56:36.667Z,75.60
2019-05-07T23:59:06.980Z,75.60
